Time;durP1;ratioP1;P1;durP2;ratioP2;P2;SDS_P1;SDS_P2;PMS_P1;PMS_P2;Temp;Humidity;BMP_temperature;BMP_pressure;BME280_temperature;BME280_humidity;BME280_pressure;Samples;Min_cycle;Max_cycle;Signal;HPM_P1;HPM_P2
2021/03/03 00:00:07;;;;;;;41.97;21.80;;;5.10;99.90;;;;;;5094245;28;20561;-79
2021/03/03 00:02:52;;;;;;;42.57;21.77;;;5.00;99.90;;;;;;5101618;28;20209;-79
2021/03/03 00:05:36;;;;;;;44.17;24.80;;;5.00;99.90;;;;;;5113482;28;20224;-79
2021/03/03 00:08:21;;;;;;;39.83;22.80;;;5.00;99.90;;;;;;5096211;28;20684;-80
2021/03/03 00:11:06;;;;;;;42.37;23.67;;;5.00;99.90;;;;;;5099817;28;20221;-80
2021/03/03 00:13:52;;;;;;;45.63;22.73;;;5.00;99.90;;;;;;5101191;28;20209;-79
2021/03/03 00:16:37;;;;;;;48.17;23.60;;;5.00;99.90;;;;;;5110555;28;20209;-79
2021/03/03 00:19:21;;;;;;;41.60;23.77;;;5.00;99.90;;;;;;5102682;28;20197;-80
2021/03/03 00:22:06;;;;;;;44.50;23.73;;;5.00;99.90;;;;;;5100116;28;20233;-79
2021/03/03 00:24:51;;;;;;;52.93;26.00;;;5.00;99.90;;;;;;5106290;28;20216;-80
2021/03/03 00:27:35;;;;;;;66.60;29.17;;;5.00;99.90;;;;;;5104503;28;20304;-79
2021/03/03 00:30:22;;;;;;;55.70;28.23;;;5.00;99.90;;;;;;5100741;28;20271;-79
2021/03/03 00:33:07;;;;;;;54.57;27.83;;;5.10;99.90;;;;;;5101239;28;20217;-80
2021/03/03 00:35:52;;;;;;;48.30;26.47;;;5.10;99.90;;;;;;5102023;28;20279;-80
2021/03/03 00:38:37;;;;;;;43.63;23.67;;;5.30;99.90;;;;;;5102457;28;20221;-80
2021/03/03 00:41:22;;;;;;;44.10;21.13;;;5.40;99.90;;;;;;5099473;28;20243;-79
2021/03/03 00:44:07;;;;;;;36.20;19.40;;;5.50;99.90;;;;;;5103839;28;20217;-80
2021/03/03 00:46:52;;;;;;;36.47;19.67;;;5.60;99.90;;;;;;5112192;28;20277;-80
2021/03/03 00:49:37;;;;;;;31.97;16.70;;;5.80;99.90;;;;;;5108947;28;20233;-79
2021/03/03 00:52:22;;;;;;;38.23;19.10;;;6.00;99.90;;;;;;5103590;28;20250;-80
2021/03/03 00:55:07;;;;;;;35.17;18.83;;;6.20;99.90;;;;;;5121096;28;20217;-80
2021/03/03 00:57:53;;;;;;;32.13;18.03;;;6.30;99.90;;;;;;5117666;28;20225;-80
2021/03/03 01:00:37;;;;;;;32.50;17.23;;;6.50;99.90;;;;;;5113811;28;20672;-80
2021/03/03 01:03:23;;;;;;;36.13;19.47;;;6.60;99.90;;;;;;5108789;28;20298;-80
2021/03/03 01:06:07;;;;;;;34.87;17.43;;;6.80;99.90;;;;;;5100148;28;20232;-80
2021/03/03 01:08:52;;;;;;;25.77;14.70;;;6.90;99.90;;;;;;5102630;28;20845;-79
2021/03/03 01:11:37;;;;;;;31.23;16.37;;;7.00;99.90;;;;;;5102341;28;20766;-78
2021/03/03 01:14:22;;;;;;;34.13;17.43;;;7.10;99.90;;;;;;5100801;28;20627;-78
2021/03/03 01:17:06;;;;;;;31.27;16.67;;;7.30;99.90;;;;;;5099480;28;20217;-79
2021/03/03 01:19:52;;;;;;;35.67;18.67;;;7.40;99.90;;;;;;5102066;28;20197;-77
2021/03/03 01:22:37;;;;;;;29.80;17.00;;;7.50;99.90;;;;;;5103346;28;20248;-79
2021/03/03 01:25:21;;;;;;;32.67;17.30;;;7.50;99.90;;;;;;5100707;28;20856;-79
2021/03/03 01:28:09;;;;;;;33.83;17.30;;;7.60;99.90;;;;;;5105205;28;20197;-79
2021/03/03 01:30:54;;;;;;;33.47;17.33;;;7.70;99.90;;;;;;5107475;28;20260;-79
2021/03/03 01:33:39;;;;;;;33.17;18.03;;;7.70;99.90;;;;;;5105407;28;20212;-78
2021/03/03 01:36:25;;;;;;;32.13;17.80;;;7.80;99.90;;;;;;5098425;28;20238;-79
2021/03/03 01:39:10;;;;;;;34.40;16.80;;;7.80;99.90;;;;;;5097510;28;20776;-77
2021/03/03 01:41:55;;;;;;;29.50;16.87;;;7.80;99.90;;;;;;5099875;28;20229;-78
2021/03/03 01:44:39;;;;;;;28.80;16.03;;;7.90;99.90;;;;;;5112524;28;20209;-79
2021/03/03 01:47:24;;;;;;;34.60;16.60;;;7.90;99.90;;;;;;5100053;28;20696;-79
2021/03/03 01:50:10;;;;;;;32.97;16.53;;;7.90;99.90;;;;;;5111168;28;20736;-78
2021/03/03 01:52:56;;;;;;;30.57;16.70;;;7.90;99.90;;;;;;5099398;28;20286;-79
2021/03/03 01:55:41;;;;;;;31.00;16.43;;;7.90;99.90;;;;;;5115035;28;20602;-78
2021/03/03 01:58:26;;;;;;;32.97;17.30;;;7.90;99.90;;;;;;5104123;28;20206;-79
2021/03/03 02:01:11;;;;;;;35.70;17.77;;;7.80;99.90;;;;;;5106525;28;20271;-79
2021/03/03 02:03:57;;;;;;;36.23;17.57;;;7.80;99.90;;;;;;5109995;28;20220;-79
2021/03/03 02:06:50;;;;;;;27.67;16.97;;;7.70;99.90;;;;;;5106797;28;20224;-78
2021/03/03 02:09:43;;;;;;;30.67;16.20;;;7.70;99.90;;;;;;5108836;28;20217;-79
2021/03/03 02:12:34;;;;;;;27.73;15.77;;;7.60;99.90;;;;;;5102933;28;20217;-79
2021/03/03 02:15:20;;;;;;;30.70;17.73;;;7.50;99.90;;;;;;5104756;28;20306;-78
2021/03/03 02:18:08;;;;;;;28.30;17.17;;;7.50;99.90;;;;;;5107280;28;20201;-78
2021/03/03 02:20:58;;;;;;;39.57;18.93;;;7.40;99.90;;;;;;5099807;28;20260;-78
2021/03/03 02:23:50;;;;;;;31.23;17.27;;;7.30;99.90;;;;;;5100768;28;20274;-79
2021/03/03 02:26:38;;;;;;;32.90;17.23;;;7.20;99.90;;;;;;5107925;28;20208;-79
2021/03/03 02:29:27;;;;;;;33.03;17.50;;;7.10;99.90;;;;;;5107907;28;20265;-79
2021/03/03 02:32:14;;;;;;;33.57;17.93;;;7.10;99.90;;;;;;5108273;28;20763;-78
2021/03/03 02:34:59;;;;;;;29.23;16.93;;;7.00;99.90;;;;;;5108654;28;20213;-78
2021/03/03 02:37:44;;;;;;;30.87;17.23;;;6.90;99.90;;;;;;5101132;28;20209;-79
2021/03/03 02:40:29;;;;;;;36.53;18.53;;;6.80;99.90;;;;;;5095224;28;20621;-78
2021/03/03 02:43:18;;;;;;;36.70;18.00;;;6.70;99.90;;;;;;5108273;28;20740;-78
2021/03/03 02:46:05;;;;;;;31.67;16.73;;;6.70;99.90;;;;;;5097835;28;20269;-79
2021/03/03 02:48:50;;;;;;;34.93;18.10;;;6.60;99.90;;;;;;5101373;28;20255;-78
2021/03/03 02:51:35;;;;;;;29.97;17.13;;;6.50;99.90;;;;;;5103168;28;20239;-79
2021/03/03 02:54:20;;;;;;;32.47;18.50;;;6.40;99.90;;;;;;5102612;28;20228;-79
2021/03/03 02:57:06;;;;;;;34.57;18.20;;;6.40;99.90;;;;;;5103937;28;20220;-79
2021/03/03 02:59:53;;;;;;;36.73;18.43;;;6.30;99.90;;;;;;5104607;28;20208;-78
2021/03/03 03:02:41;;;;;;;34.33;17.83;;;6.30;99.90;;;;;;5101583;28;20229;-78
2021/03/03 03:05:28;;;;;;;35.70;18.90;;;6.20;99.90;;;;;;5105175;28;20208;-78
2021/03/03 03:08:17;;;;;;;34.13;19.63;;;6.20;99.90;;;;;;5098548;28;20704;-79
2021/03/03 03:11:04;;;;;;;28.77;17.67;;;6.10;99.90;;;;;;5093371;28;20229;-79
2021/03/03 03:13:52;;;;;;;35.80;19.17;;;6.10;99.90;;;;;;5105647;28;20204;-79
2021/03/03 03:16:40;;;;;;;35.53;18.67;;;6.00;99.90;;;;;;5097869;28;20288;-78
2021/03/03 03:19:29;;;;;;;39.80;18.50;;;6.00;99.90;;;;;;5110961;28;20240;-78
2021/03/03 03:22:16;;;;;;;34.63;18.07;;;6.00;99.90;;;;;;5104431;28;20233;-79
2021/03/03 03:25:03;;;;;;;34.23;18.93;;;5.90;99.90;;;;;;5115256;28;20215;-78
2021/03/03 03:27:49;;;;;;;33.80;17.53;;;5.90;99.90;;;;;;5108129;28;20212;-79
2021/03/03 03:30:34;;;;;;;30.80;16.97;;;5.80;99.90;;;;;;5107696;28;20231;-79
2021/03/03 03:33:22;;;;;;;34.70;18.50;;;5.80;99.90;;;;;;5106434;28;20225;-78
2021/03/03 03:36:07;;;;;;;31.10;17.73;;;5.70;99.90;;;;;;5103290;28;20281;-78
2021/03/03 03:38:52;;;;;;;29.10;16.60;;;5.70;99.90;;;;;;5097552;28;20237;-79
2021/03/03 03:41:39;;;;;;;32.27;19.13;;;5.60;99.90;;;;;;5104138;28;20233;-79
2021/03/03 03:44:25;;;;;;;34.30;18.47;;;5.60;99.90;;;;;;5101255;28;20287;-77
2021/03/03 03:47:11;;;;;;;35.13;18.57;;;5.50;99.90;;;;;;5100098;28;20319;-77
2021/03/03 03:50:02;;;;;;;33.27;17.73;;;5.50;99.90;;;;;;5107512;28;20305;-77
2021/03/03 03:52:51;;;;;;;36.23;17.83;;;5.40;99.90;;;;;;5097269;28;20300;-78
2021/03/03 03:55:37;;;;;;;34.33;18.63;;;5.40;99.90;;;;;;5096835;28;20216;-77
2021/03/03 03:58:22;;;;;;;29.47;18.13;;;5.30;99.90;;;;;;5100029;28;20220;-78
2021/03/03 04:01:07;;;;;;;32.87;17.43;;;5.30;99.90;;;;;;5095024;28;20752;-76
2021/03/03 04:03:52;;;;;;;34.70;18.60;;;5.20;99.90;;;;;;5094930;28;20247;-77
2021/03/03 04:06:38;;;;;;;33.77;19.07;;;5.20;99.90;;;;;;5105499;28;20295;-78
2021/03/03 04:09:22;;;;;;;30.27;17.20;;;5.20;99.90;;;;;;5099728;28;20225;-78
2021/03/03 04:12:08;;;;;;;30.77;17.73;;;5.10;99.90;;;;;;5103780;28;20233;-79
2021/03/03 04:14:53;;;;;;;31.97;18.63;;;5.10;99.90;;;;;;5100399;28;20209;-78
2021/03/03 04:17:38;;;;;;;33.87;18.73;;;5.00;99.90;;;;;;5104390;28;20247;-78
2021/03/03 04:20:23;;;;;;;36.10;18.90;;;5.00;99.90;;;;;;5104782;28;20208;-78
2021/03/03 04:23:10;;;;;;;36.33;20.10;;;4.90;99.90;;;;;;5103929;28;20218;-78
2021/03/03 04:25:54;;;;;;;34.43;19.40;;;4.90;99.90;;;;;;5097959;28;20204;-77
2021/03/03 04:28:39;;;;;;;35.03;20.23;;;4.90;99.90;;;;;;5096616;28;20305;-78
2021/03/03 04:31:24;;;;;;;35.57;19.43;;;4.80;99.90;;;;;;5105541;28;20259;-78
2021/03/03 04:34:08;;;;;;;35.23;18.83;;;4.80;99.90;;;;;;5105887;28;20198;-78
2021/03/03 04:36:53;;;;;;;40.97;21.30;;;4.80;99.90;;;;;;5104041;28;20255;-78
2021/03/03 04:39:39;;;;;;;39.33;20.03;;;4.80;99.90;;;;;;5095342;28;20209;-78
2021/03/03 04:42:24;;;;;;;36.77;20.37;;;4.80;99.90;;;;;;5096807;28;20233;-78
2021/03/03 04:45:10;;;;;;;39.77;20.77;;;4.80;99.90;;;;;;5109536;28;20277;-77
2021/03/03 04:47:56;;;;;;;41.67;22.50;;;4.70;99.90;;;;;;5095364;28;20206;-78
2021/03/03 04:50:40;;;;;;;49.07;23.33;;;4.70;99.90;;;;;;5115551;28;20266;-77
2021/03/03 04:53:25;;;;;;;43.00;23.90;;;4.70;99.90;;;;;;5124140;28;20224;-77
2021/03/03 04:56:11;;;;;;;48.53;24.87;;;4.70;99.90;;;;;;5118443;28;20205;-77
2021/03/03 04:58:55;;;;;;;55.63;26.97;;;4.80;99.90;;;;;;5120475;28;20254;-78
2021/03/03 05:01:40;;;;;;;47.67;24.27;;;4.80;99.90;;;;;;5112363;28;20226;-79
2021/03/03 05:04:25;;;;;;;47.50;23.77;;;4.90;99.90;;;;;;5103362;28;20228;-79
2021/03/03 05:07:10;;;;;;;42.87;22.60;;;5.00;99.90;;;;;;5108742;28;20220;-78
2021/03/03 05:09:55;;;;;;;39.87;22.70;;;5.00;99.90;;;;;;5105503;28;20225;-79
2021/03/03 05:12:40;;;;;;;39.77;21.67;;;5.10;99.90;;;;;;5115151;28;20261;-77
2021/03/03 05:15:25;;;;;;;41.70;21.13;;;5.20;99.90;;;;;;5097354;28;20205;-79
2021/03/03 05:18:11;;;;;;;34.23;20.43;;;5.30;99.90;;;;;;5099582;28;20353;-79
2021/03/03 05:20:55;;;;;;;35.50;19.57;;;5.40;99.90;;;;;;5102902;28;20244;-77
2021/03/03 05:23:40;;;;;;;39.73;20.77;;;5.50;99.90;;;;;;5100979;28;20267;-79
2021/03/03 05:26:25;;;;;;;38.63;19.40;;;5.50;99.90;;;;;;5107235;28;20201;-79
2021/03/03 05:29:11;;;;;;;34.93;19.60;;;5.60;99.90;;;;;;5101480;28;20305;-78
2021/03/03 05:31:56;;;;;;;37.83;19.63;;;5.60;99.90;;;;;;5108822;28;20236;-78
2021/03/03 05:34:40;;;;;;;39.13;21.70;;;5.70;99.90;;;;;;5111732;28;20612;-79
2021/03/03 05:37:25;;;;;;;35.47;19.57;;;5.70;99.90;;;;;;5109764;28;20603;-78
2021/03/03 05:40:11;;;;;;;41.90;20.23;;;5.70;99.90;;;;;;5100760;28;20340;-78
2021/03/03 05:42:56;;;;;;;37.07;20.23;;;5.80;99.90;;;;;;5105232;28;20210;-78
2021/03/03 05:45:44;;;;;;;40.33;20.43;;;5.80;99.90;;;;;;5106848;28;20213;-79
2021/03/03 05:48:32;;;;;;;33.87;20.80;;;5.80;99.90;;;;;;5107037;28;20231;-79
2021/03/03 05:51:17;;;;;;;43.13;20.43;;;5.90;99.90;;;;;;5102049;28;20253;-79
2021/03/03 05:54:04;;;;;;;37.90;21.10;;;5.90;99.90;;;;;;5100182;28;20209;-79
2021/03/03 05:56:50;;;;;;;39.40;19.67;;;6.00;99.90;;;;;;5106307;28;20221;-79
2021/03/03 05:59:37;;;;;;;34.73;19.97;;;6.00;99.90;;;;;;5098595;28;20212;-78
2021/03/03 06:02:23;;;;;;;34.43;19.60;;;6.00;99.90;;;;;;5103072;28;20719;-79
2021/03/03 06:05:11;;;;;;;40.40;21.20;;;6.10;99.90;;;;;;5100033;28;20241;-79
2021/03/03 06:07:56;;;;;;;38.07;21.00;;;6.10;99.90;;;;;;5096499;28;20236;-78
2021/03/03 06:10:41;;;;;;;36.37;20.47;;;6.10;99.90;;;;;;5101121;28;20237;-78
2021/03/03 06:13:27;;;;;;;35.90;19.27;;;6.10;99.90;;;;;;5099017;28;20690;-79
2021/03/03 06:16:13;;;;;;;32.60;18.70;;;6.20;99.90;;;;;;5101714;28;20282;-79
2021/03/03 06:18:59;;;;;;;38.03;22.20;;;6.20;99.90;;;;;;5101600;28;20209;-80
2021/03/03 06:21:44;;;;;;;31.20;19.30;;;6.20;99.90;;;;;;5106628;28;20220;-79
2021/03/03 06:24:34;;;;;;;35.27;20.20;;;6.20;99.90;;;;;;5102029;28;20209;-79
2021/03/03 06:27:22;;;;;;;39.57;21.37;;;6.20;99.90;;;;;;5100335;28;20209;-78
2021/03/03 06:30:09;;;;;;;37.17;19.90;;;6.30;99.90;;;;;;5101310;28;20260;-78
2021/03/03 06:33:00;;;;;;;41.00;20.97;;;6.30;99.90;;;;;;5100558;28;20208;-78
2021/03/03 06:35:47;;;;;;;35.70;19.27;;;6.30;99.90;;;;;;5099564;28;20200;-78
2021/03/03 06:38:32;;;;;;;36.80;20.80;;;6.20;99.90;;;;;;5103092;28;20576;-78
2021/03/03 06:41:17;;;;;;;40.33;22.07;;;6.30;99.90;;;;;;5100187;28;20304;-78
2021/03/03 06:44:02;;;;;;;39.47;22.97;;;6.30;99.90;;;;;;5103101;28;20699;-79
2021/03/03 06:47:05;;;;;;;34.37;18.87;;;6.30;99.90;;;;;;5102599;28;20202;-79
2021/03/03 06:49:51;;;;;;;39.70;22.73;;;6.30;99.90;;;;;;5101189;28;20590;-79
2021/03/03 06:52:41;;;;;;;30.17;17.83;;;6.30;99.90;;;;;;5101668;28;20221;-79
2021/03/03 06:55:50;;;;;;;40.57;21.83;;;6.30;99.90;;;;;;5104842;28;20201;-79
2021/03/03 06:58:35;;;;;;;39.53;21.40;;;6.20;99.90;;;;;;5101505;28;20224;-79
2021/03/03 07:01:34;;;;;;;41.07;22.27;;;6.30;99.90;;;;;;5102772;28;20233;-80
2021/03/03 07:04:28;;;;;;;42.07;21.43;;;6.40;99.90;;;;;;5103097;28;20284;-81
2021/03/03 07:07:15;;;;;;;37.97;21.80;;;6.40;99.90;;;;;;5103332;28;20220;-78
2021/03/03 07:10:01;;;;;;;44.97;23.40;;;6.40;99.90;;;;;;5105781;28;20243;-78
2021/03/03 07:12:49;;;;;;;40.33;21.27;;;6.50;99.90;;;;;;5102775;28;20387;-80
2021/03/03 07:15:34;;;;;;;40.30;21.87;;;6.60;99.90;;;;;;5103232;28;20216;-80
2021/03/03 07:18:33;;;;;;;36.83;22.87;;;6.60;99.90;;;;;;5098192;28;20213;-79
2021/03/03 07:21:36;;;;;;;36.87;21.93;;;6.70;99.90;;;;;;5101246;28;20247;-79
2021/03/03 07:24:22;;;;;;;37.73;23.43;;;6.80;99.90;;;;;;5097999;28;20200;-80
2021/03/03 07:27:09;;;;;;;39.63;23.50;;;6.80;99.90;;;;;;5101832;28;20266;-80
2021/03/03 07:29:55;;;;;;;37.17;21.20;;;6.90;99.90;;;;;;5099921;28;20217;-80
2021/03/03 07:32:41;;;;;;;38.77;21.80;;;7.00;99.90;;;;;;5094022;28;20356;-79
2021/03/03 07:35:26;;;;;;;35.67;20.13;;;7.10;99.90;;;;;;5098977;28;20342;-79
2021/03/03 07:38:12;;;;;;;40.70;23.03;;;7.10;99.90;;;;;;5102544;28;20223;-81
2021/03/03 07:41:03;;;;;;;36.93;22.80;;;7.20;99.90;;;;;;5099141;28;20300;-80
2021/03/03 07:43:51;;;;;;;36.13;22.13;;;7.30;99.90;;;;;;5098844;28;20391;-78
2021/03/03 07:46:38;;;;;;;39.70;23.03;;;7.40;99.90;;;;;;5095178;28;20386;-78
2021/03/03 07:49:24;;;;;;;39.60;23.03;;;7.50;99.90;;;;;;5105488;28;20223;-79
2021/03/03 07:52:09;;;;;;;36.70;21.73;;;7.50;99.90;;;;;;5100929;28;20268;-77
2021/03/03 07:54:58;;;;;;;38.43;23.20;;;7.60;99.90;;;;;;5104812;28;20288;-79
2021/03/03 07:57:45;;;;;;;38.53;22.80;;;7.70;99.90;;;;;;5095262;28;20279;-78
2021/03/03 08:00:34;;;;;;;45.13;24.43;;;7.80;99.90;;;;;;5102058;28;20280;-80
2021/03/03 08:03:42;;;;;;;42.30;25.30;;;7.80;99.90;;;;;;5105463;28;20597;-80
2021/03/03 08:06:34;;;;;;;39.20;23.70;;;7.90;99.90;;;;;;5100854;28;20247;-80
2021/03/03 08:09:20;;;;;;;41.93;24.87;;;7.90;99.90;;;;;;5091713;28;20621;-80
2021/03/03 08:12:05;;;;;;;40.20;23.77;;;8.00;99.90;;;;;;5100265;28;20257;-79
2021/03/03 08:14:50;;;;;;;43.00;25.37;;;8.00;99.90;;;;;;5101229;28;20216;-80
2021/03/03 08:17:40;;;;;;;43.67;23.63;;;8.10;99.90;;;;;;5096897;28;20681;-79
2021/03/03 08:20:30;;;;;;;44.20;25.43;;;8.20;99.90;;;;;;5094222;28;20697;-80
2021/03/03 08:23:41;;;;;;;40.37;22.87;;;8.30;99.90;;;;;;5098193;28;20209;-80
2021/03/03 08:26:34;;;;;;;40.87;24.83;;;8.50;99.90;;;;;;5103858;28;20265;-79
2021/03/03 08:29:26;;;;;;;45.47;25.70;;;8.60;99.90;;;;;;5096529;28;20248;-80
2021/03/03 08:32:25;;;;;;;40.17;24.80;;;8.70;99.90;;;;;;5098464;28;20308;-80
2021/03/03 08:35:11;;;;;;;40.13;24.97;;;8.80;99.90;;;;;;5098982;28;20578;-80
2021/03/03 08:38:14;;;;;;;43.80;25.87;;;8.90;99.90;;;;;;5097166;28;20295;-79
2021/03/03 08:41:30;;;;;;;45.77;26.17;;;9.10;99.90;;;;;;5105076;28;20221;-80
2021/03/03 08:44:16;;;;;;;45.83;25.60;;;9.10;99.90;;;;;;5106576;28;20259;-81
2021/03/03 08:47:01;;;;;;;37.80;25.10;;;9.30;99.90;;;;;;5099132;28;20251;-79
2021/03/03 08:49:45;;;;;;;45.10;26.00;;;9.40;99.90;;;;;;5100874;28;20259;-79
2021/03/03 08:52:31;;;;;;;47.13;27.57;;;9.50;99.90;;;;;;5101151;28;20252;-80
2021/03/03 08:55:29;;;;;;;47.90;28.40;;;9.60;99.90;;;;;;5109393;28;20257;-80
2021/03/03 08:58:51;;;;;;;47.03;30.00;;;9.80;99.90;;;;;;5100764;28;20201;-80
2021/03/03 09:02:01;;;;;;;44.30;28.23;;;9.90;99.90;;;;;;5108232;28;20225;-80
2021/03/03 09:04:47;;;;;;;45.83;29.43;;;10.10;99.90;;;;;;5108070;28;20197;-81
2021/03/03 09:07:33;;;;;;;46.73;30.23;;;10.20;99.90;;;;;;5104428;28;20642;-80
2021/03/03 09:10:19;;;;;;;47.93;30.67;;;10.40;99.90;;;;;;5105370;28;20223;-80
2021/03/03 09:13:04;;;;;;;48.03;30.50;;;10.60;99.90;;;;;;5099864;28;20201;-80
2021/03/03 09:16:03;;;;;;;44.17;29.97;;;10.80;99.90;;;;;;5112896;28;20247;-80
2021/03/03 09:19:02;;;;;;;44.73;26.80;;;11.00;99.90;;;;;;5111172;28;20689;-81
2021/03/03 09:21:48;;;;;;;47.87;30.33;;;11.30;99.90;;;;;;5100848;28;20225;-80
2021/03/03 09:24:34;;;;;;;40.10;26.73;;;11.50;99.90;;;;;;5110607;28;20848;-80
2021/03/03 09:27:20;;;;;;;45.13;27.43;;;11.70;99.90;;;;;;5111667;28;20641;-81
2021/03/03 09:30:07;;;;;;;39.90;27.63;;;12.00;99.90;;;;;;5102739;28;20228;-80
2021/03/03 09:32:52;;;;;;;47.10;29.07;;;12.20;99.90;;;;;;5104979;28;20235;-80
2021/03/03 09:35:37;;;;;;;42.90;28.00;;;12.50;99.90;;;;;;5101328;28;20210;-81
2021/03/03 09:38:22;;;;;;;43.37;26.77;;;12.80;99.90;;;;;;5103835;28;20320;-80
2021/03/03 09:41:11;;;;;;;42.27;26.13;;;13.00;99.90;;;;;;5103520;28;20228;-80
2021/03/03 09:44:01;;;;;;;38.53;26.83;;;13.20;99.90;;;;;;5098775;28;20260;-78
2021/03/03 09:46:57;;;;;;;41.77;27.00;;;13.30;99.90;;;;;;5104013;28;20224;-78
2021/03/03 09:49:44;;;;;;;41.90;27.33;;;13.50;99.90;;;;;;5097994;28;20283;-79
2021/03/03 09:52:35;;;;;;;39.73;27.33;;;13.60;99.90;;;;;;5099154;28;20224;-80
2021/03/03 09:55:22;;;;;;;40.53;27.37;;;13.70;99.90;;;;;;5096676;28;20201;-79
2021/03/03 09:58:10;;;;;;;45.20;28.37;;;13.80;99.90;;;;;;5095315;28;20255;-79
2021/03/03 10:00:55;;;;;;;43.83;29.63;;;13.90;99.90;;;;;;5094653;28;20217;-80
2021/03/03 10:03:39;;;;;;;44.67;28.40;;;14.00;99.90;;;;;;5095942;28;20295;-80
2021/03/03 10:06:24;;;;;;;40.23;27.13;;;14.10;99.90;;;;;;5102667;28;20233;-79
2021/03/03 10:09:09;;;;;;;40.53;28.20;;;14.20;99.90;;;;;;5102118;28;20306;-80
2021/03/03 10:11:55;;;;;;;39.03;27.20;;;14.40;99.90;;;;;;5100691;28;20273;-80
2021/03/03 10:14:55;;;;;;;46.03;29.63;;;14.50;99.90;;;;;;5097944;28;20202;-79
2021/03/03 10:17:42;;;;;;;49.20;28.87;;;14.70;99.90;;;;;;5102467;28;20710;-80
2021/03/03 10:20:32;;;;;;;44.13;29.37;;;14.80;99.90;;;;;;5101173;28;20281;-78
2021/03/03 10:23:18;;;;;;;40.60;29.07;;;14.90;99.90;;;;;;5102175;28;20520;-80
2021/03/03 10:26:05;;;;;;;41.13;29.73;;;15.00;99.90;;;;;;5100097;28;20233;-79
2021/03/03 10:28:54;;;;;;;46.77;29.97;;;15.10;99.90;;;;;;5101478;28;20210;-80
2021/03/03 10:31:40;;;;;;;44.90;29.73;;;15.30;99.90;;;;;;5102132;28;20441;-80
2021/03/03 10:34:28;;;;;;;45.90;30.83;;;15.40;99.90;;;;;;5106055;28;20211;-80
2021/03/03 10:37:24;;;;;;;42.00;30.57;;;15.50;99.90;;;;;;5102555;28;20229;-79
2021/03/03 10:40:13;;;;;;;44.03;32.13;;;15.60;99.90;;;;;;5098946;28;20291;-80
2021/03/03 10:43:07;;;;;;;48.10;32.93;;;15.70;99.90;;;;;;5099553;28;20223;-78
2021/03/03 10:46:09;;;;;;;45.17;31.30;;;15.90;99.90;;;;;;5095985;28;20285;-81
2021/03/03 10:48:56;;;;;;;42.60;31.57;;;16.20;99.90;;;;;;5100234;28;20289;-79
2021/03/03 10:51:42;;;;;;;45.30;32.57;;;16.50;99.90;;;;;;5097333;28;20247;-80
2021/03/03 10:54:31;;;;;;;42.20;31.50;;;16.80;99.90;;;;;;5092114;28;20569;-81
2021/03/03 10:57:16;;;;;;;44.03;30.87;;;17.20;99.90;;;;;;5101956;28;20248;-81
2021/03/03 11:00:05;;;;;;;44.10;31.13;;;17.70;99.90;;;;;;5094815;28;20665;-81
2021/03/03 11:03:01;;;;;;;41.13;30.40;;;18.10;99.90;;;;;;5097412;28;20237;-80
2021/03/03 11:05:51;;;;;;;38.53;30.57;;;18.50;99.90;;;;;;5094542;28;20287;-81
2021/03/03 11:08:36;;;;;;;39.73;30.73;;;18.80;99.90;;;;;;5093197;28;20237;-79
2021/03/03 11:11:21;;;;;;;42.53;31.43;;;19.20;99.90;;;;;;5092459;28;20300;-81
2021/03/03 11:14:06;;;;;;;37.23;29.53;;;19.60;99.90;;;;;;5105943;28;20228;-81
2021/03/03 11:16:52;;;;;;;38.17;28.83;;;20.00;99.90;;;;;;5110713;28;20221;-81
2021/03/03 11:19:37;;;;;;;39.37;29.57;;;20.40;99.90;;;;;;5099562;28;20580;-81
2021/03/03 11:22:22;;;;;;;42.13;30.07;;;20.90;99.90;;;;;;5098305;28;20230;-80
2021/03/03 11:25:08;;;;;;;40.13;30.93;;;21.40;99.90;;;;;;5104347;28;20204;-80
2021/03/03 11:27:53;;;;;;;45.33;32.30;;;21.80;99.90;;;;;;5109121;28;20627;-80
2021/03/03 11:30:38;;;;;;;40.17;30.90;;;22.20;99.90;;;;;;5108473;28;20217;-81
2021/03/03 11:33:23;;;;;;;39.97;30.87;;;22.70;97.70;;;;;;5106493;28;20216;-81
2021/03/03 11:36:09;;;;;;;44.23;31.17;;;23.10;97.90;;;;;;5106892;28;20728;-80
2021/03/03 11:38:54;;;;;;;39.67;29.23;;;23.60;94.70;;;;;;5092404;28;20208;-80
2021/03/03 11:41:39;;;;;;;38.30;30.80;;;24.00;94.20;;;;;;5091311;28;20275;-80
2021/03/03 11:44:24;;;;;;;39.17;30.83;;;24.40;91.00;;;;;;5111440;28;20213;-79
2021/03/03 11:47:09;;;;;;;39.33;29.97;;;24.70;91.30;;;;;;5114710;28;20296;-79
2021/03/03 11:49:54;;;;;;;37.37;32.50;;;24.90;89.30;;;;;;5120831;28;20228;-78
2021/03/03 11:52:39;;;;;;;41.70;32.37;;;25.10;85.80;;;;;;5132864;28;20225;-78
2021/03/03 11:55:25;;;;;;;39.37;31.83;;;25.30;89.20;;;;;;5102338;28;20236;-80
2021/03/03 11:58:10;;;;;;;41.13;31.67;;;25.40;86.40;;;;;;5111818;28;20665;-81
2021/03/03 12:00:55;;;;;;;41.70;32.73;;;25.50;85.70;;;;;;5101758;28;20250;-81
2021/03/03 12:03:40;;;;;;;36.37;29.80;;;25.70;83.90;;;;;;5102262;28;20252;-81
2021/03/03 12:06:24;;;;;;;42.20;33.50;;;25.90;80.30;;;;;;5107832;28;20728;-81
2021/03/03 12:09:10;;;;;;;44.10;34.83;;;26.10;79.30;;;;;;5108574;28;20262;-82
2021/03/03 12:11:56;;;;;;;36.07;32.13;;;26.20;77.60;;;;;;5100015;28;20228;-83
2021/03/03 12:14:41;;;;;;;38.87;33.63;;;26.30;77.20;;;;;;5104881;28;20723;-85
2021/03/03 12:17:27;;;;;;;43.20;33.47;;;26.30;77.60;;;;;;5108928;28;20202;-83
2021/03/03 12:20:12;;;;;;;41.77;32.20;;;26.20;75.90;;;;;;5111606;28;20203;-83
2021/03/03 12:22:58;;;;;;;40.07;34.80;;;26.10;75.10;;;;;;5115188;28;20235;-79
2021/03/03 12:25:43;;;;;;;43.97;35.23;;;25.90;76.70;;;;;;5102183;28;20637;-81
2021/03/03 12:28:28;;;;;;;46.70;34.50;;;25.90;74.10;;;;;;5113516;28;20216;-82
2021/03/03 12:31:13;;;;;;;41.47;35.13;;;25.80;75.50;;;;;;5103716;28;20667;-83
2021/03/03 12:33:58;;;;;;;41.90;35.30;;;25.80;78.10;;;;;;5113523;28;20206;-82
2021/03/03 12:36:43;;;;;;;44.20;37.77;;;25.90;75.30;;;;;;5107443;28;20215;-83
2021/03/03 12:39:28;;;;;;;44.37;36.40;;;26.00;72.80;;;;;;5107162;28;20243;-83
2021/03/03 12:42:13;;;;;;;43.80;36.17;;;26.10;76.00;;;;;;5102259;28;20227;-83
2021/03/03 12:44:59;;;;;;;42.60;35.67;;;26.20;75.10;;;;;;5109315;28;20611;-82
2021/03/03 12:47:44;;;;;;;38.27;33.93;;;26.40;74.90;;;;;;5106188;28;20288;-84
2021/03/03 12:50:29;;;;;;;45.63;36.50;;;26.60;75.30;;;;;;5117138;28;20262;-82
2021/03/03 12:53:14;;;;;;;47.28;38.22;;;26.80;75.10;;;;;;5103838;28;20213;-83
2021/03/03 12:55:59;;;;;;;49.50;38.10;;;27.00;73.90;;;;;;5098583;28;20224;-82
2021/03/03 12:58:44;;;;;;;43.15;37.78;;;27.20;72.00;;;;;;5099405;28;20269;-83
2021/03/03 13:01:30;;;;;;;48.92;38.85;;;27.40;70.60;;;;;;5101814;28;20236;-83
2021/03/03 13:04:16;;;;;;;44.75;38.78;;;27.50;69.60;;;;;;5109801;28;20243;-84
2021/03/03 13:07:01;;;;;;;46.70;39.55;;;27.70;68.20;;;;;;5099349;28;20219;-82
2021/03/03 13:09:47;;;;;;;47.17;39.88;;;27.90;69.60;;;;;;5097108;28;20205;-84
2021/03/03 13:12:32;;;;;;;45.45;38.13;;;28.00;69.90;;;;;;5111659;28;20225;-83
2021/03/03 13:15:17;;;;;;;49.53;41.40;;;28.20;69.10;;;;;;5120056;28;20585;-83
2021/03/03 13:18:03;;;;;;;46.58;39.63;;;28.30;67.60;;;;;;5119439;28;20211;-83
2021/03/03 13:20:48;;;;;;;46.47;39.53;;;28.40;67.60;;;;;;5099704;28;20223;-85
2021/03/03 13:23:33;;;;;;;46.88;39.13;;;28.60;67.10;;;;;;5114685;28;20605;-85
2021/03/03 13:26:18;;;;;;;48.60;39.33;;;28.70;67.10;;;;;;5110461;28;20206;-84
2021/03/03 13:29:03;;;;;;;46.63;40.85;;;28.70;67.00;;;;;;5112677;28;20224;-85
2021/03/03 13:31:47;;;;;;;48.28;39.08;;;29.00;64.60;;;;;;5110204;28;20238;-84
2021/03/03 13:34:33;;;;;;;47.58;40.85;;;29.10;65.70;;;;;;5116332;28;20273;-83
2021/03/03 13:37:18;;;;;;;53.17;40.50;;;29.20;64.40;;;;;;5117550;28;20571;-83
2021/03/03 13:40:06;;;;;;;47.20;40.95;;;29.30;63.00;;;;;;5107067;28;20680;-83
2021/03/03 13:42:51;;;;;;;44.38;39.30;;;29.40;63.00;;;;;;5101939;28;20243;-84
2021/03/03 13:45:36;;;;;;;47.72;40.38;;;29.40;63.40;;;;;;5105891;28;20294;-83
2021/03/03 13:48:21;;;;;;;50.97;41.90;;;29.40;63.10;;;;;;5108647;28;20274;-84
2021/03/03 13:51:07;;;;;;;45.92;40.20;;;29.40;62.20;;;;;;5116938;28;20221;-84
2021/03/03 13:53:55;;;;;;;47.97;40.70;;;29.40;62.70;;;;;;5111971;28;20205;-85
2021/03/03 13:56:40;;;;;;;48.25;41.97;;;29.40;63.10;;;;;;5102751;28;20212;-82
2021/03/03 13:59:25;;;;;;;45.25;39.72;;;29.40;62.00;;;;;;5114044;28;20708;-84
2021/03/03 14:02:10;;;;;;;46.13;40.25;;;29.30;62.20;;;;;;5100214;28;20599;-83
2021/03/03 14:04:55;;;;;;;51.80;41.15;;;29.30;62.50;;;;;;5115561;28;20203;-85
2021/03/03 14:07:41;;;;;;;45.25;40.38;;;29.30;62.00;;;;;;5114075;28;20248;-84
2021/03/03 14:10:27;;;;;;;44.80;39.90;;;29.30;61.30;;;;;;5117474;28;20204;-81
2021/03/03 14:13:12;;;;;;;45.95;41.10;;;29.30;60.40;;;;;;5103494;28;20208;-83